createdAt,value
2023-04-23T00:00:23.398Z,0.00
2023-04-23T00:01:22.745Z,0.00
2023-04-23T00:02:23.570Z,0.00
2023-04-23T00:03:22.929Z,0.00
2023-04-23T00:04:23.284Z,0.00
2023-04-23T00:05:22.954Z,0.00
2023-04-23T00:06:23.462Z,0.00
2023-04-23T00:07:23.403Z,0.00
2023-04-23T00:08:22.741Z,0.00
2023-04-23T00:09:22.670Z,0.00
2023-04-23T00:10:22.773Z,0.00
2023-04-23T00:11:22.800Z,0.00
2023-04-23T00:12:22.621Z,0.00
2023-04-23T00:13:22.816Z,0.00
2023-04-23T00:14:22.860Z,0.00
2023-04-23T00:15:22.916Z,0.00
2023-04-23T00:16:22.793Z,0.00
2023-04-23T00:17:23.026Z,0.00
2023-04-23T00:18:23.030Z,0.00
2023-04-23T00:19:22.534Z,0.00
2023-04-23T00:20:23.086Z,0.00
2023-04-23T00:21:23.098Z,0.00
2023-04-23T00:22:23.148Z,0.00
2023-04-23T00:23:22.760Z,0.00
2023-04-23T00:24:23.181Z,0.00
2023-04-23T00:25:22.447Z,0.00
2023-04-23T00:26:22.900Z,0.00
2023-04-23T00:27:22.454Z,0.00
2023-04-23T00:28:22.488Z,0.00
2023-04-23T00:29:22.431Z,0.00
2023-04-23T00:30:22.386Z,0.00
2023-04-23T00:31:22.420Z,0.00
2023-04-23T00:32:22.450Z,0.00
2023-04-23T00:33:22.380Z,0.00
2023-04-23T00:34:22.348Z,0.00
2023-04-23T00:35:22.426Z,0.00
2023-04-23T00:36:22.334Z,0.00
2023-04-23T00:37:22.331Z,0.00
2023-04-23T00:38:22.435Z,0.00
2023-04-23T00:39:22.296Z,0.00
2023-04-23T00:40:22.282Z,0.00
2023-04-23T00:41:22.275Z,0.00
2023-04-23T00:42:22.260Z,0.00
2023-04-23T00:43:22.232Z,0.00
2023-04-23T00:44:22.423Z,0.00
2023-04-23T00:45:22.210Z,0.00
2023-04-23T00:46:22.514Z,0.00
2023-04-23T00:47:22.288Z,0.00
2023-04-23T00:48:22.449Z,0.00
2023-04-23T00:49:22.168Z,0.00
2023-04-23T00:50:22.256Z,0.00
2023-04-23T00:51:22.449Z,0.00
2023-04-23T00:52:22.135Z,0.00
2023-04-23T00:53:22.138Z,0.00
2023-04-23T00:54:22.131Z,0.00
2023-04-23T00:55:22.095Z,0.00
2023-04-23T00:56:22.152Z,0.00
2023-04-23T00:57:22.100Z,0.00
2023-04-23T00:58:22.101Z,0.00
2023-04-23T00:59:22.049Z,0.00
2023-04-23T01:00:22.054Z,0.00
2023-04-23T01:01:22.241Z,0.00
2023-04-23T01:02:22.388Z,0.00
2023-04-23T01:03:22.315Z,0.00
2023-04-23T01:04:22.066Z,0.00
2023-04-23T01:05:21.980Z,0.00
2023-04-23T01:06:21.963Z,0.00
2023-04-23T01:07:21.950Z,0.00
2023-04-23T01:08:21.966Z,0.00
2023-04-23T01:09:22.297Z,0.00
2023-04-23T01:10:22.163Z,0.00
2023-04-23T01:11:21.902Z,0.00
2023-04-23T01:12:22.236Z,0.00
2023-04-23T01:13:21.922Z,0.00
2023-04-23T01:14:21.889Z,0.00
2023-04-23T01:15:21.859Z,0.00
2023-04-23T01:16:21.881Z,0.00
2023-04-23T01:17:21.865Z,0.00
2023-04-23T01:18:22.405Z,0.00
2023-04-23T01:19:21.840Z,0.00
2023-04-23T01:20:22.128Z,0.00
2023-04-23T01:21:21.783Z,0.00
2023-04-23T01:22:21.810Z,0.00
2023-04-23T01:23:21.789Z,0.00
2023-04-23T01:24:22.107Z,0.00
2023-04-23T01:25:21.744Z,0.00
2023-04-23T01:26:22.467Z,0.00
2023-04-23T01:27:21.726Z,0.00
2023-04-23T01:28:21.758Z,0.00
2023-04-23T01:29:21.701Z,0.00
2023-04-23T01:30:21.705Z,0.00
2023-04-23T01:31:21.775Z,0.00
2023-04-23T01:32:21.697Z,0.00
2023-04-23T01:33:22.457Z,0.00
2023-04-23T01:34:22.432Z,0.00
2023-04-23T01:35:21.637Z,0.00
2023-04-23T01:36:22.468Z,0.00
2023-04-23T01:37:21.605Z,0.00
2023-04-23T01:38:21.758Z,0.00
2023-04-23T01:39:21.766Z,0.00
2023-04-23T01:40:21.589Z,0.00
2023-04-23T01:41:21.604Z,0.00
2023-04-23T01:42:21.606Z,0.00
2023-04-23T01:43:21.560Z,0.00
2023-04-23T01:44:21.542Z,0.00
2023-04-23T01:45:21.707Z,0.00
2023-04-23T01:46:21.545Z,0.00
2023-04-23T01:47:21.517Z,0.00
2023-04-23T01:48:21.507Z,0.00
2023-04-23T01:49:21.474Z,0.00
2023-04-23T01:50:21.472Z,0.00
2023-04-23T01:51:21.430Z,0.00
2023-04-23T01:52:21.527Z,0.00
2023-04-23T01:53:21.441Z,0.00
2023-04-23T01:54:21.832Z,0.00
2023-04-23T01:55:21.395Z,0.00
2023-04-23T01:56:21.397Z,0.00
2023-04-23T01:57:21.481Z,0.00
2023-04-23T01:58:21.489Z,0.00
2023-04-23T01:59:21.368Z,0.00
2023-04-23T02:00:22.143Z,0.00
2023-04-23T02:01:21.357Z,0.00
2023-04-23T02:02:21.353Z,0.00
2023-04-23T02:03:22.265Z,0.00
2023-04-23T02:04:21.411Z,0.00
2023-04-23T02:05:21.501Z,0.00
2023-04-23T02:06:21.489Z,0.00
2023-04-23T02:07:21.261Z,0.00
2023-04-23T02:08:21.509Z,0.00
2023-04-23T02:09:21.490Z,0.00
2023-04-23T02:10:21.364Z,0.00
2023-04-23T02:11:21.197Z,0.00
2023-04-23T02:12:21.501Z,0.00
2023-04-23T02:13:21.186Z,0.00
2023-04-23T02:14:21.218Z,0.00
2023-04-23T02:15:21.251Z,0.00
2023-04-23T02:16:21.236Z,0.00
2023-04-23T02:17:21.176Z,0.00
2023-04-23T02:18:21.203Z,0.00
2023-04-23T02:19:21.137Z,0.00
2023-04-23T02:20:21.167Z,0.00
2023-04-23T02:21:21.283Z,0.00
2023-04-23T02:22:21.330Z,0.00
2023-04-23T02:23:21.313Z,0.00
2023-04-23T02:24:21.351Z,0.00
2023-04-23T02:25:21.051Z,0.00
2023-04-23T02:26:21.059Z,0.00
2023-04-23T02:27:21.027Z,0.00
2023-04-23T02:28:21.406Z,0.00
2023-04-23T02:29:21.004Z,0.00
2023-04-23T02:30:21.075Z,0.00
2023-04-23T02:31:21.079Z,0.00
2023-04-23T02:32:21.014Z,0.00
2023-04-23T02:33:20.967Z,0.00
2023-04-23T02:34:20.964Z,0.00
2023-04-23T02:35:20.927Z,0.00
2023-04-23T02:36:20.983Z,0.00
2023-04-23T02:37:21.151Z,0.00
2023-04-23T02:38:20.963Z,0.00
2023-04-23T02:39:20.890Z,0.00
2023-04-23T02:40:21.398Z,0.00
2023-04-23T02:41:20.862Z,0.00
2023-04-23T02:42:20.901Z,0.00
2023-04-23T02:43:21.493Z,0.00
2023-04-23T02:44:20.957Z,0.00
2023-04-23T02:45:20.960Z,0.00
2023-04-23T02:46:21.547Z,0.00
2023-04-23T02:47:20.868Z,0.00
2023-04-23T02:48:21.307Z,0.00
2023-04-23T02:49:21.525Z,0.00
2023-04-23T02:50:20.791Z,0.00
2023-04-23T02:51:20.742Z,0.00
2023-04-23T02:52:21.545Z,0.00
2023-04-23T02:53:20.739Z,0.00
2023-04-23T02:54:21.536Z,0.00
2023-04-23T02:55:21.060Z,0.00
2023-04-23T02:56:20.717Z,0.00
2023-04-23T02:57:20.702Z,0.00
2023-04-23T02:58:20.686Z,0.00
2023-04-23T02:59:20.682Z,0.00
2023-04-23T03:00:20.675Z,0.00
2023-04-23T03:01:21.430Z,0.00
2023-04-23T03:02:20.696Z,0.00
2023-04-23T03:03:20.772Z,0.00
2023-04-23T03:04:21.389Z,0.00
2023-04-23T03:05:20.579Z,0.00
2023-04-23T03:06:20.576Z,0.00
2023-04-23T03:07:20.556Z,0.00
2023-04-23T03:08:21.515Z,0.00
2023-04-23T03:09:20.553Z,0.00
2023-04-23T03:10:20.586Z,0.00
2023-04-23T03:11:20.557Z,0.00
2023-04-23T03:12:20.537Z,0.00
2023-04-23T03:13:20.549Z,0.00
2023-04-23T03:14:20.505Z,0.00
2023-04-23T03:15:20.464Z,0.00
2023-04-23T03:16:20.519Z,0.00
2023-04-23T03:17:20.443Z,0.00
2023-04-23T03:18:20.459Z,0.00
2023-04-23T03:19:20.428Z,0.00
2023-04-23T03:20:20.432Z,0.00
2023-04-23T03:21:20.399Z,0.00
2023-04-23T03:22:20.408Z,0.00
2023-04-23T03:23:20.407Z,0.00
2023-04-23T03:24:20.560Z,0.00
2023-04-23T03:25:20.559Z,0.00
2023-04-23T03:26:20.369Z,0.00
2023-04-23T03:27:20.332Z,0.00
2023-04-23T03:28:20.556Z,0.00
2023-04-23T03:29:20.316Z,0.00
2023-04-23T03:30:20.305Z,0.00
2023-04-23T03:31:20.558Z,0.00
2023-04-23T03:32:20.332Z,0.00
2023-04-23T03:33:20.295Z,0.00
2023-04-23T03:34:20.284Z,0.00
2023-04-23T03:35:20.239Z,0.00
2023-04-23T03:36:20.238Z,0.00
2023-04-23T03:37:20.227Z,0.00
2023-04-23T03:38:20.228Z,0.00
2023-04-23T03:39:20.205Z,0.00
2023-04-23T03:40:20.210Z,0.00
2023-04-23T03:41:20.386Z,0.00
2023-04-23T03:42:20.169Z,0.00
2023-04-23T03:43:20.145Z,0.00
2023-04-23T03:44:20.195Z,0.00
2023-04-23T03:45:20.103Z,0.00
2023-04-23T03:46:20.217Z,0.00
2023-04-23T03:47:20.235Z,0.00
2023-04-23T03:48:20.105Z,0.00
2023-04-23T03:49:20.079Z,0.00
2023-04-23T03:50:20.091Z,0.00
2023-04-23T03:51:20.048Z,0.00
2023-04-23T03:52:20.051Z,0.00
2023-04-23T03:53:20.040Z,0.00
2023-04-23T03:54:20.064Z,0.00
2023-04-23T03:55:20.006Z,0.00
2023-04-23T03:56:20.012Z,0.00
2023-04-23T03:57:20.006Z,0.00
2023-04-23T03:58:20.004Z,0.00
2023-04-23T03:59:19.985Z,0.00
2023-04-23T04:00:19.993Z,0.00
2023-04-23T04:01:19.937Z,0.00
2023-04-23T04:02:20.061Z,0.00
2023-04-23T04:03:20.074Z,0.00
2023-04-23T04:04:20.351Z,0.00
2023-04-23T04:05:20.053Z,0.00
2023-04-23T04:06:19.896Z,0.00
2023-04-23T04:07:19.869Z,0.00
2023-04-23T04:08:19.925Z,0.00
2023-04-23T04:09:19.876Z,0.00
2023-04-23T04:10:19.853Z,0.00
2023-04-23T04:11:19.805Z,0.00
2023-04-23T04:12:19.822Z,0.00
2023-04-23T04:13:20.300Z,0.00
2023-04-23T04:14:19.877Z,0.00
2023-04-23T04:15:19.806Z,0.00
2023-04-23T04:16:19.799Z,0.00
2023-04-23T04:17:20.477Z,0.00
2023-04-23T04:18:19.773Z,0.00
2023-04-23T04:19:19.758Z,0.00
2023-04-23T04:20:20.548Z,0.00
2023-04-23T04:21:19.704Z,0.00
2023-04-23T04:22:19.703Z,0.00
2023-04-23T04:23:19.985Z,0.00
2023-04-23T04:24:19.712Z,0.00
2023-04-23T04:25:19.673Z,0.00
2023-04-23T04:26:19.672Z,0.00
2023-04-23T04:27:19.647Z,0.00
2023-04-23T04:28:19.625Z,0.00
2023-04-23T04:29:19.626Z,0.00
2023-04-23T04:30:19.612Z,0.00
2023-04-23T04:31:19.610Z,0.00
2023-04-23T04:32:19.670Z,0.00
2023-04-23T04:33:19.595Z,0.00
2023-04-23T04:34:19.582Z,0.00
2023-04-23T04:35:19.661Z,0.00
2023-04-23T04:36:19.611Z,0.00
2023-04-23T04:37:19.637Z,0.00
2023-04-23T04:38:19.521Z,0.00
2023-04-23T04:39:19.506Z,0.00
2023-04-23T04:40:19.491Z,0.00
2023-04-23T04:41:19.455Z,0.00
2023-04-23T04:42:19.462Z,0.00
2023-04-23T04:43:19.427Z,5.62
2023-04-23T04:44:19.629Z,5.62
2023-04-23T04:45:19.617Z,5.62
2023-04-23T04:46:19.581Z,5.62
2023-04-23T04:47:19.412Z,5.62
2023-04-23T04:48:19.393Z,5.62
2023-04-23T04:49:19.380Z,5.62
2023-04-23T04:50:19.386Z,11.25
2023-04-23T04:51:19.349Z,11.25
2023-04-23T04:52:19.367Z,11.25
2023-04-23T04:53:19.332Z,11.25
2023-04-23T04:54:19.350Z,11.25
2023-04-23T04:55:19.316Z,11.25
2023-04-23T04:56:19.294Z,16.88
2023-04-23T04:57:19.269Z,16.88
2023-04-23T04:58:19.272Z,22.50
2023-04-23T04:59:19.356Z,22.50
2023-04-23T05:00:19.461Z,22.50
2023-04-23T05:01:19.268Z,22.50
2023-04-23T05:02:19.427Z,22.50
2023-04-23T05:03:19.426Z,22.50
2023-04-23T05:04:19.220Z,28.12
2023-04-23T05:05:19.231Z,33.75
2023-04-23T05:06:19.258Z,28.12
2023-04-23T05:07:19.160Z,67.50
2023-04-23T05:08:19.525Z,78.75
2023-04-23T05:09:19.587Z,33.75
2023-04-23T05:10:19.125Z,56.25
2023-04-23T05:11:19.149Z,33.75
2023-04-23T05:12:19.126Z,101.25
2023-04-23T05:13:19.101Z,106.88
2023-04-23T05:14:19.098Z,112.50
2023-04-23T05:15:19.120Z,118.12
2023-04-23T05:16:19.700Z,118.12
2023-04-23T05:17:19.089Z,112.50
2023-04-23T05:18:19.051Z,123.75
2023-04-23T05:19:19.074Z,101.25
2023-04-23T05:20:19.011Z,118.12
2023-04-23T05:21:19.033Z,16.88
2023-04-23T05:22:19.013Z,16.88
2023-04-23T05:23:19.010Z,16.88
2023-04-23T05:24:18.965Z,16.88
2023-04-23T05:25:18.963Z,16.88
2023-04-23T05:26:18.940Z,11.25
2023-04-23T05:27:19.001Z,16.88
2023-04-23T05:28:18.915Z,11.25
2023-04-23T05:29:18.936Z,11.25
2023-04-23T05:30:18.925Z,5.62
2023-04-23T05:31:18.919Z,5.62
2023-04-23T05:32:18.935Z,5.62
2023-04-23T05:33:18.905Z,5.62
2023-04-23T05:34:18.881Z,5.62
2023-04-23T05:35:18.843Z,5.62
2023-04-23T05:36:18.832Z,5.62
2023-04-23T05:37:18.849Z,5.62
2023-04-23T05:38:18.810Z,5.62
2023-04-23T05:39:18.813Z,5.62
2023-04-23T05:40:19.016Z,5.62
2023-04-23T05:41:19.066Z,5.62
2023-04-23T05:42:18.767Z,11.25
2023-04-23T05:43:18.754Z,11.25
2023-04-23T05:44:18.760Z,11.25
2023-04-23T05:45:18.715Z,11.25
2023-04-23T05:46:18.718Z,11.25
2023-04-23T05:47:18.698Z,11.25
2023-04-23T05:48:18.675Z,11.25
2023-04-23T05:49:18.676Z,11.25
2023-04-23T05:50:18.687Z,11.25
2023-04-23T05:51:18.659Z,11.25
2023-04-23T05:52:18.665Z,11.25
2023-04-23T05:53:18.671Z,11.25
2023-04-23T05:54:18.616Z,11.25
2023-04-23T05:55:18.606Z,11.25
2023-04-23T05:56:18.581Z,11.25
2023-04-23T05:57:18.609Z,11.25
2023-04-23T05:58:18.563Z,11.25
2023-04-23T05:59:18.563Z,11.25
2023-04-23T06:00:18.510Z,11.25
2023-04-23T06:01:18.530Z,11.25
2023-04-23T06:02:18.548Z,11.25
2023-04-23T06:03:18.748Z,11.25
2023-04-23T06:04:18.721Z,11.25
2023-04-23T06:05:18.936Z,11.25
2023-04-23T06:06:18.452Z,11.25
2023-04-23T06:07:18.451Z,11.25
2023-04-23T06:08:18.445Z,11.25
2023-04-23T06:09:18.441Z,11.25
2023-04-23T06:10:18.404Z,11.25
2023-04-23T06:11:18.409Z,11.25
2023-04-23T06:12:18.551Z,11.25
2023-04-23T06:13:18.395Z,11.25
2023-04-23T06:14:18.383Z,11.25
2023-04-23T06:15:18.362Z,11.25
2023-04-23T06:16:18.369Z,11.25
2023-04-23T06:17:18.348Z,11.25
2023-04-23T06:18:18.375Z,11.25
2023-04-23T06:19:18.332Z,11.25
2023-04-23T06:20:18.495Z,11.25
2023-04-23T06:21:19.734Z,11.25
2023-04-23T06:22:18.256Z,11.25
2023-04-23T06:23:18.283Z,16.88
2023-04-23T06:24:18.249Z,16.88
2023-04-23T06:25:18.242Z,16.88
2023-04-23T06:26:18.218Z,16.88
2023-04-23T06:27:18.223Z,16.88
2023-04-23T06:28:18.504Z,16.88
2023-04-23T06:29:18.213Z,16.88
2023-04-23T06:30:18.164Z,16.88
2023-04-23T06:31:18.200Z,11.25
2023-04-23T06:32:20.414Z,11.25
2023-04-23T06:33:18.171Z,11.25
2023-04-23T06:34:18.138Z,11.25
2023-04-23T06:35:18.135Z,11.25
2023-04-23T06:36:18.102Z,11.25
2023-04-23T06:37:18.105Z,11.25
2023-04-23T06:38:18.095Z,11.25
2023-04-23T06:39:18.120Z,11.25
2023-04-23T06:40:18.079Z,5.62
2023-04-23T06:41:18.057Z,5.62
2023-04-23T06:42:18.061Z,5.62
2023-04-23T06:43:18.037Z,5.62
2023-04-23T06:44:18.043Z,5.62
2023-04-23T06:45:18.034Z,5.62
2023-04-23T06:46:18.099Z,11.25
2023-04-23T06:47:17.989Z,11.25
2023-04-23T06:48:17.986Z,11.25
2023-04-23T06:49:17.961Z,11.25
2023-04-23T06:50:17.939Z,11.25
2023-04-23T06:51:17.935Z,11.25
2023-04-23T06:52:17.926Z,11.25
2023-04-23T06:53:18.720Z,16.88
2023-04-23T06:54:17.947Z,16.88
2023-04-23T06:55:17.889Z,16.88
2023-04-23T06:56:17.881Z,16.88
2023-04-23T06:57:17.882Z,22.50
2023-04-23T06:58:17.922Z,22.50
2023-04-23T06:59:17.860Z,22.50
2023-04-23T07:00:17.919Z,28.12
2023-04-23T07:01:17.867Z,33.75
2023-04-23T07:02:17.872Z,39.38
2023-04-23T07:03:17.838Z,45.00
2023-04-23T07:04:17.839Z,45.00
2023-04-23T07:05:18.713Z,45.00
2023-04-23T07:06:17.761Z,45.00
2023-04-23T07:07:17.762Z,50.62
2023-04-23T07:08:17.744Z,61.88
2023-04-23T07:09:17.772Z,56.25
2023-04-23T07:10:18.169Z,73.12
2023-04-23T07:11:17.722Z,95.62
2023-04-23T07:12:17.695Z,157.50
2023-04-23T07:13:17.704Z,180.00
2023-04-23T07:14:17.688Z,191.25
2023-04-23T07:15:17.694Z,292.50
2023-04-23T07:16:19.769Z,180.00
2023-04-23T07:17:17.653Z,151.88
2023-04-23T07:18:17.635Z,118.12
2023-04-23T07:19:17.645Z,146.25
2023-04-23T07:20:17.627Z,281.25
2023-04-23T07:21:17.613Z,258.75
2023-04-23T07:22:17.589Z,360.00
2023-04-23T07:23:17.589Z,365.62
2023-04-23T07:24:17.576Z,196.88
2023-04-23T07:25:17.739Z,225.00
2023-04-23T07:26:17.544Z,168.75
2023-04-23T07:27:17.749Z,135.00
2023-04-23T07:28:17.520Z,118.12
2023-04-23T07:29:18.387Z,106.88
2023-04-23T07:30:17.490Z,168.75
2023-04-23T07:31:17.497Z,163.12
2023-04-23T07:32:17.531Z,129.38
2023-04-23T07:33:17.469Z,123.75
2023-04-23T07:34:17.463Z,112.50
2023-04-23T07:35:17.451Z,101.25
2023-04-23T07:36:17.420Z,95.62
2023-04-23T07:37:17.439Z,95.62
2023-04-23T07:38:17.398Z,95.62
2023-04-23T07:39:17.401Z,95.62
2023-04-23T07:40:17.572Z,95.62
2023-04-23T07:41:17.598Z,95.62
2023-04-23T07:42:17.385Z,90.00
2023-04-23T07:43:17.636Z,90.00
2023-04-23T07:44:17.328Z,84.38
2023-04-23T07:45:17.648Z,78.75
2023-04-23T07:46:17.335Z,67.50
2023-04-23T07:47:17.313Z,61.88
2023-04-23T07:48:17.684Z,56.25
2023-04-23T07:49:17.714Z,50.62
2023-04-23T07:50:17.322Z,45.00
2023-04-23T07:51:17.288Z,33.75
2023-04-23T07:52:17.727Z,28.12
2023-04-23T07:53:17.752Z,22.50
2023-04-23T07:54:17.763Z,22.50
2023-04-23T07:55:17.215Z,22.50
2023-04-23T07:56:17.235Z,22.50
2023-04-23T07:57:17.212Z,22.50
2023-04-23T07:58:17.321Z,22.50
2023-04-23T07:59:17.204Z,22.50
2023-04-23T08:00:17.160Z,22.50
2023-04-23T08:01:17.410Z,28.12
2023-04-23T08:02:17.495Z,28.12
2023-04-23T08:03:17.358Z,28.12
2023-04-23T08:04:17.800Z,28.12
2023-04-23T08:05:17.171Z,28.12
2023-04-23T08:06:17.092Z,33.75
2023-04-23T08:07:17.580Z,33.75
2023-04-23T08:08:17.053Z,33.75
2023-04-23T08:09:17.075Z,33.75
2023-04-23T08:10:17.044Z,33.75
2023-04-23T08:11:17.047Z,39.38
2023-04-23T08:12:17.009Z,50.62
2023-04-23T08:13:17.040Z,67.50
2023-04-23T08:14:17.192Z,61.88
2023-04-23T08:15:17.010Z,67.50
2023-04-23T08:16:16.999Z,61.88
2023-04-23T08:17:17.744Z,101.25
2023-04-23T08:18:17.789Z,129.38
2023-04-23T08:19:17.789Z,84.38
2023-04-23T08:20:16.939Z,84.38
2023-04-23T08:21:16.922Z,90.00
2023-04-23T08:22:16.889Z,78.75
2023-04-23T08:23:17.577Z,67.50
2023-04-23T08:24:16.942Z,140.62
2023-04-23T08:25:17.723Z,151.88
2023-04-23T08:26:16.840Z,112.50
2023-04-23T08:27:16.840Z,95.62
2023-04-23T08:28:16.840Z,95.62
2023-04-23T08:29:16.819Z,106.88
2023-04-23T08:30:16.800Z,140.62
2023-04-23T08:31:25.704Z,135.00
2023-04-23T08:32:17.840Z,90.00
2023-04-23T08:33:16.834Z,95.62
2023-04-23T08:34:16.752Z,129.38
2023-04-23T08:35:16.757Z,123.75
2023-04-23T08:36:16.717Z,123.75
2023-04-23T08:37:27.152Z,123.75
2023-04-23T08:38:17.705Z,118.12
2023-04-23T08:39:16.728Z,118.12
2023-04-23T08:40:16.817Z,112.50
2023-04-23T08:41:16.704Z,112.50
2023-04-23T08:42:17.251Z,106.88
2023-04-23T08:43:16.678Z,106.88
2023-04-23T08:44:16.650Z,101.25
2023-04-23T08:45:16.799Z,95.62
2023-04-23T08:46:16.629Z,90.00
2023-04-23T08:47:16.602Z,95.62
2023-04-23T08:48:16.588Z,73.12
2023-04-23T08:49:16.943Z,112.50
2023-04-23T08:50:16.580Z,61.88
2023-04-23T08:51:16.552Z,118.12
2023-04-23T08:52:16.543Z,101.25
2023-04-23T08:53:16.695Z,112.50
2023-04-23T08:54:16.572Z,118.12
2023-04-23T08:55:16.510Z,112.50
2023-04-23T08:56:16.487Z,112.50
2023-04-23T08:57:16.486Z,90.00
2023-04-23T08:58:16.489Z,106.88
2023-04-23T08:59:16.464Z,95.62
2023-04-23T09:00:16.470Z,112.50
2023-04-23T09:01:16.485Z,106.88
2023-04-23T09:02:16.484Z,101.25
2023-04-23T09:03:16.673Z,101.25
2023-04-23T09:04:16.413Z,61.88
2023-04-23T09:05:16.409Z,101.25
2023-04-23T09:06:16.371Z,95.62
2023-04-23T09:07:16.377Z,101.25
2023-04-23T09:08:16.386Z,112.50
2023-04-23T09:09:16.352Z,61.88
2023-04-23T09:10:18.449Z,61.88
2023-04-23T09:11:16.344Z,73.12
2023-04-23T09:12:16.323Z,95.62
2023-04-23T09:13:16.814Z,101.25
2023-04-23T09:14:16.301Z,61.88
2023-04-23T09:15:16.296Z,56.25
2023-04-23T09:16:16.299Z,50.62
2023-04-23T09:17:16.265Z,45.00
2023-04-23T09:18:16.245Z,39.38
2023-04-23T09:19:16.249Z,50.62
2023-04-23T09:20:16.233Z,50.62
2023-04-23T09:21:16.235Z,56.25
2023-04-23T09:22:16.953Z,61.88
2023-04-23T09:23:16.971Z,67.50
2023-04-23T09:24:16.962Z,112.50
2023-04-23T09:25:16.852Z,101.25
2023-04-23T09:26:16.176Z,90.00
2023-04-23T09:27:16.142Z,84.38
2023-04-23T09:28:16.171Z,90.00
2023-04-23T09:29:16.114Z,50.62
2023-04-23T09:30:16.268Z,50.62
2023-04-23T09:31:16.085Z,56.25
2023-04-23T09:32:16.507Z,56.25
2023-04-23T09:33:16.349Z,56.25
2023-04-23T09:34:16.382Z,84.38
2023-04-23T09:35:16.059Z,56.25
2023-04-23T09:36:16.043Z,56.25
2023-04-23T09:37:16.017Z,56.25
2023-04-23T09:38:16.013Z,56.25
2023-04-23T09:39:16.545Z,56.25
2023-04-23T09:40:16.024Z,50.62
2023-04-23T09:41:16.585Z,50.62
2023-04-23T09:42:15.975Z,50.62
2023-04-23T09:43:16.666Z,50.62
2023-04-23T09:44:15.985Z,67.50
2023-04-23T09:45:15.924Z,56.25
2023-04-23T09:46:15.944Z,50.62
2023-04-23T09:47:15.883Z,50.62
2023-04-23T09:48:16.817Z,50.62
2023-04-23T09:49:15.886Z,50.62
2023-04-23T09:50:16.731Z,50.62
2023-04-23T09:51:15.854Z,50.62
2023-04-23T09:52:15.842Z,50.62
2023-04-23T09:53:15.825Z,50.62
2023-04-23T09:54:15.847Z,45.00
2023-04-23T09:55:16.750Z,45.00
2023-04-23T09:56:15.881Z,45.00
2023-04-23T09:57:15.775Z,45.00
2023-04-23T09:58:15.999Z,45.00
2023-04-23T09:59:15.763Z,45.00
2023-04-23T10:00:15.985Z,45.00
2023-04-23T10:01:15.769Z,45.00
2023-04-23T10:02:15.848Z,84.38
2023-04-23T10:03:16.089Z,67.50
2023-04-23T10:04:15.960Z,45.00
2023-04-23T10:05:24.385Z,90.00
2023-04-23T10:06:25.734Z,78.75
2023-04-23T10:07:20.263Z,101.25
2023-04-23T10:08:15.868Z,101.25
2023-04-23T10:09:15.875Z,90.00
2023-04-23T10:10:15.651Z,90.00
2023-04-23T10:13:15.638Z,84.38
2023-04-23T10:14:15.595Z,78.75
2023-04-23T10:15:15.561Z,73.12
2023-04-23T10:16:22.273Z,61.88
2023-04-23T10:17:16.580Z,56.25
2023-04-23T10:18:15.571Z,56.25
2023-04-23T10:19:15.760Z,61.88
2023-04-23T10:20:15.763Z,61.88
2023-04-23T10:21:15.738Z,67.50
2023-04-23T10:22:19.089Z,56.25
2023-04-23T10:23:15.712Z,50.62
2023-04-23T10:24:15.776Z,50.62
2023-04-23T10:25:15.782Z,50.62
2023-04-23T10:26:15.456Z,50.62
2023-04-23T10:27:26.957Z,45.00
2023-04-23T10:28:16.879Z,45.00
2023-04-23T10:29:15.403Z,45.00
2023-04-23T10:30:15.384Z,50.62
2023-04-23T10:31:15.401Z,50.62
2023-04-23T10:32:15.889Z,50.62
2023-04-23T10:33:26.487Z,50.62
2023-04-23T10:34:16.913Z,50.62
2023-04-23T10:35:15.320Z,50.62
2023-04-23T10:36:15.322Z,50.62
2023-04-23T10:37:15.296Z,50.62
2023-04-23T10:38:15.311Z,50.62
2023-04-23T10:39:20.747Z,56.25
2023-04-23T10:40:16.535Z,56.25
2023-04-23T10:41:15.244Z,56.25
2023-04-23T10:42:15.250Z,56.25
2023-04-23T10:43:15.225Z,50.62
2023-04-23T10:44:16.188Z,50.62
2023-04-23T10:45:23.305Z,50.62
2023-04-23T10:46:16.298Z,50.62
2023-04-23T10:47:15.182Z,50.62
2023-04-23T10:48:15.215Z,50.62
2023-04-23T10:49:15.165Z,50.62
2023-04-23T10:50:15.157Z,50.62
2023-04-23T10:52:20.823Z,50.62
2023-04-23T10:53:16.124Z,50.62
2023-04-23T10:54:15.116Z,50.62
2023-04-23T10:55:15.901Z,50.62
2023-04-23T10:56:15.926Z,50.62
2023-04-23T10:57:15.143Z,50.62
2023-04-23T10:58:15.805Z,50.62
2023-04-23T10:59:15.062Z,50.62
2023-04-23T11:00:15.104Z,50.62
2023-04-23T11:01:15.018Z,50.62
2023-04-23T11:02:15.395Z,56.25
2023-04-23T11:03:15.140Z,56.25
2023-04-23T11:04:15.146Z,61.88
2023-04-23T11:05:14.975Z,61.88
2023-04-23T11:06:15.233Z,61.88
2023-04-23T11:07:14.970Z,78.75
2023-04-23T11:08:19.303Z,73.12
2023-04-23T11:09:15.938Z,73.12
2023-04-23T11:10:15.048Z,73.12
2023-04-23T11:11:14.906Z,67.50
2023-04-23T11:12:14.904Z,73.12
2023-04-23T11:13:14.878Z,73.12
2023-04-23T11:14:14.902Z,73.12
2023-04-23T11:15:14.853Z,73.12
2023-04-23T11:16:14.943Z,73.12
2023-04-23T11:17:14.844Z,67.50
2023-04-23T11:18:14.842Z,73.12
2023-04-23T11:19:14.831Z,73.12
2023-04-23T11:20:14.959Z,67.50
2023-04-23T11:21:14.788Z,67.50
2023-04-23T11:22:14.789Z,67.50
2023-04-23T11:23:14.769Z,67.50
2023-04-23T11:24:14.788Z,61.88
2023-04-23T11:25:14.920Z,73.12
2023-04-23T11:26:14.927Z,67.50
2023-04-23T11:27:14.725Z,73.12
2023-04-23T11:28:14.934Z,67.50
2023-04-23T11:29:14.692Z,73.12
2023-04-23T11:30:14.732Z,73.12
2023-04-23T11:31:14.666Z,61.88
2023-04-23T11:32:14.787Z,67.50
2023-04-23T11:33:14.718Z,61.88
2023-04-23T11:34:14.644Z,56.25
2023-04-23T11:35:14.639Z,50.62
2023-04-23T11:36:14.638Z,50.62
2023-04-23T11:37:14.592Z,50.62
2023-04-23T11:38:14.606Z,50.62
2023-04-23T11:39:14.575Z,50.62
2023-04-23T11:40:15.153Z,56.25
2023-04-23T11:41:14.558Z,50.62
2023-04-23T11:42:14.574Z,56.25
2023-04-23T11:43:14.527Z,56.25
2023-04-23T11:44:14.538Z,56.25
2023-04-23T11:45:14.519Z,56.25
2023-04-23T11:46:14.519Z,56.25
2023-04-23T11:47:14.476Z,56.25
2023-04-23T11:48:14.563Z,56.25
2023-04-23T11:49:14.472Z,56.25
2023-04-23T11:50:14.477Z,50.62
2023-04-23T11:51:14.433Z,50.62
2023-04-23T11:52:14.458Z,50.62
2023-04-23T11:53:14.414Z,50.62
2023-04-23T11:54:14.430Z,45.00
2023-04-23T11:55:14.400Z,39.38
2023-04-23T11:56:14.419Z,39.38
2023-04-23T11:57:14.365Z,33.75
2023-04-23T11:58:14.372Z,39.38
2023-04-23T11:59:14.343Z,39.38
2023-04-23T12:00:14.340Z,39.38
2023-04-23T12:01:14.329Z,45.00
2023-04-23T12:02:14.410Z,50.62
2023-04-23T12:03:14.414Z,50.62
2023-04-23T12:04:14.531Z,50.62
2023-04-23T12:05:14.347Z,50.62
2023-04-23T12:06:14.283Z,56.25
2023-04-23T12:07:25.351Z,56.25
2023-04-23T12:08:16.269Z,61.88
2023-04-23T12:09:14.228Z,61.88
2023-04-23T12:10:16.522Z,61.88
2023-04-23T12:11:14.220Z,61.88
2023-04-23T12:12:14.638Z,61.88
2023-04-23T12:13:14.238Z,61.88
2023-04-23T12:14:14.191Z,61.88
2023-04-23T12:15:14.160Z,61.88
2023-04-23T12:16:14.181Z,61.88
2023-04-23T12:17:14.127Z,56.25
2023-04-23T12:18:14.147Z,56.25
2023-04-23T12:19:14.140Z,56.25
2023-04-23T12:20:14.978Z,56.25
2023-04-23T12:21:15.005Z,56.25
2023-04-23T12:22:14.134Z,50.62
2023-04-23T12:23:14.244Z,50.62
2023-04-23T12:24:14.987Z,56.25
2023-04-23T12:25:14.049Z,50.62
2023-04-23T12:26:14.088Z,50.62
2023-04-23T12:27:14.050Z,50.62
2023-04-23T12:28:14.046Z,56.25
2023-04-23T12:29:14.040Z,56.25
2023-04-23T12:30:14.036Z,50.62
2023-04-23T12:31:14.013Z,56.25
2023-04-23T12:32:14.006Z,61.88
2023-04-23T12:33:14.005Z,61.88
2023-04-23T12:34:13.982Z,61.88
2023-04-23T12:35:13.934Z,61.88
2023-04-23T12:36:13.970Z,61.88
2023-04-23T12:37:13.980Z,61.88
2023-04-23T12:38:13.916Z,61.88
2023-04-23T12:39:13.877Z,61.88
2023-04-23T12:40:13.882Z,56.25
2023-04-23T12:41:13.864Z,56.25
2023-04-23T12:42:13.906Z,56.25
2023-04-23T12:43:13.836Z,56.25
2023-04-23T12:44:13.849Z,50.62
2023-04-23T12:45:14.318Z,50.62
2023-04-23T12:46:13.897Z,50.62
2023-04-23T12:47:13.813Z,50.62
2023-04-23T12:48:14.427Z,50.62
2023-04-23T12:49:13.768Z,45.00
2023-04-23T12:50:13.794Z,45.00
2023-04-23T12:51:13.763Z,45.00
2023-04-23T12:52:14.297Z,45.00
2023-04-23T12:53:13.751Z,39.38
2023-04-23T12:54:13.726Z,45.00
2023-04-23T12:55:13.693Z,45.00
2023-04-23T12:56:13.693Z,39.38
2023-04-23T12:57:13.858Z,45.00
2023-04-23T12:58:13.709Z,45.00
2023-04-23T12:59:13.652Z,45.00
2023-04-23T13:00:13.712Z,45.00
2023-04-23T13:01:13.640Z,45.00
2023-04-23T13:02:13.664Z,45.00
2023-04-23T13:03:13.684Z,45.00